sensor_id;sensor_type;location;lat;lon;timestamp;P1;durP1;ratioP1;P2;durP2;ratioP2
30149;SDS011;16962;48.646;9.026;2023-07-30T00:02:40;17.38;;;8.27;;
30149;SDS011;16962;48.646;9.026;2023-07-30T00:05:27;13.77;;;8.95;;
30149;SDS011;16962;48.646;9.026;2023-07-30T00:08:15;9.60;;;7.95;;
30149;SDS011;16962;48.646;9.026;2023-07-30T00:11:02;13.38;;;7.68;;
30149;SDS011;16962;48.646;9.026;2023-07-30T00:13:50;12.07;;;8.05;;
30149;SDS011;16962;48.646;9.026;2023-07-30T00:16:39;11.52;;;7.80;;
30149;SDS011;16962;48.646;9.026;2023-07-30T00:19:26;14.00;;;8.32;;
30149;SDS011;16962;48.646;9.026;2023-07-30T00:22:14;12.98;;;8.98;;
30149;SDS011;16962;48.646;9.026;2023-07-30T00:25:05;16.25;;;8.13;;
30149;SDS011;16962;48.646;9.026;2023-07-30T00:27:56;9.98;;;8.23;;
30149;SDS011;16962;48.646;9.026;2023-07-30T00:30:43;13.10;;;8.00;;
30149;SDS011;16962;48.646;9.026;2023-07-30T00:33:32;12.10;;;8.10;;
30149;SDS011;16962;48.646;9.026;2023-07-30T00:36:20;9.82;;;8.10;;
30149;SDS011;16962;48.646;9.026;2023-07-30T00:39:07;11.27;;;8.02;;
30149;SDS011;16962;48.646;9.026;2023-07-30T00:41:57;17.15;;;9.20;;
30149;SDS011;16962;48.646;9.026;2023-07-30T00:44:50;11.23;;;8.65;;
30149;SDS011;16962;48.646;9.026;2023-07-30T00:47:37;16.00;;;8.98;;
30149;SDS011;16962;48.646;9.026;2023-07-30T00:50:25;12.82;;;8.50;;
30149;SDS011;16962;48.646;9.026;2023-07-30T00:53:13;10.57;;;8.32;;
30149;SDS011;16962;48.646;9.026;2023-07-30T00:56:02;9.43;;;7.88;;
30149;SDS011;16962;48.646;9.026;2023-07-30T00:59:00;11.93;;;8.23;;
30149;SDS011;16962;48.646;9.026;2023-07-30T01:01:48;9.35;;;7.55;;
30149;SDS011;16962;48.646;9.026;2023-07-30T01:04:40;14.23;;;8.52;;
30149;SDS011;16962;48.646;9.026;2023-07-30T01:07:27;11.65;;;6.55;;
30149;SDS011;16962;48.646;9.026;2023-07-30T01:10:17;9.88;;;7.28;;
30149;SDS011;16962;48.646;9.026;2023-07-30T01:13:08;8.00;;;6.78;;
30149;SDS011;16962;48.646;9.026;2023-07-30T01:15:56;10.57;;;7.70;;
30149;SDS011;16962;48.646;9.026;2023-07-30T01:18:44;12.18;;;8.05;;
30149;SDS011;16962;48.646;9.026;2023-07-30T01:21:36;11.68;;;8.20;;
30149;SDS011;16962;48.646;9.026;2023-07-30T01:24:25;10.15;;;7.38;;
30149;SDS011;16962;48.646;9.026;2023-07-30T01:27:14;12.38;;;7.55;;
30149;SDS011;16962;48.646;9.026;2023-07-30T01:30:21;8.45;;;7.20;;
30149;SDS011;16962;48.646;9.026;2023-07-30T01:33:14;13.18;;;7.03;;
30149;SDS011;16962;48.646;9.026;2023-07-30T01:36:03;7.50;;;5.95;;
30149;SDS011;16962;48.646;9.026;2023-07-30T01:38:52;11.38;;;6.90;;
30149;SDS011;16962;48.646;9.026;2023-07-30T01:41:43;9.35;;;6.88;;
30149;SDS011;16962;48.646;9.026;2023-07-30T01:44:30;12.43;;;6.60;;
30149;SDS011;16962;48.646;9.026;2023-07-30T01:47:18;9.90;;;6.60;;
30149;SDS011;16962;48.646;9.026;2023-07-30T01:50:07;10.68;;;6.47;;
30149;SDS011;16962;48.646;9.026;2023-07-30T01:55:47;7.88;;;5.53;;
30149;SDS011;16962;48.646;9.026;2023-07-30T01:58:35;6.43;;;4.70;;
30149;SDS011;16962;48.646;9.026;2023-07-30T02:01:22;6.05;;;4.88;;
30149;SDS011;16962;48.646;9.026;2023-07-30T02:04:09;6.35;;;4.20;;
30149;SDS011;16962;48.646;9.026;2023-07-30T02:06:57;8.65;;;3.90;;
30149;SDS011;16962;48.646;9.026;2023-07-30T02:09:44;7.82;;;4.13;;
30149;SDS011;16962;48.646;9.026;2023-07-30T02:12:32;7.43;;;3.80;;
30149;SDS011;16962;48.646;9.026;2023-07-30T02:15:19;6.50;;;3.75;;
30149;SDS011;16962;48.646;9.026;2023-07-30T02:18:06;6.03;;;4.00;;
30149;SDS011;16962;48.646;9.026;2023-07-30T02:20:56;4.75;;;3.80;;
30149;SDS011;16962;48.646;9.026;2023-07-30T02:23:44;6.68;;;4.15;;
30149;SDS011;16962;48.646;9.026;2023-07-30T02:26:36;8.40;;;5.38;;
30149;SDS011;16962;48.646;9.026;2023-07-30T02:29:23;7.50;;;5.28;;
30149;SDS011;16962;48.646;9.026;2023-07-30T02:32:12;9.15;;;5.78;;
30149;SDS011;16962;48.646;9.026;2023-07-30T02:34:59;9.13;;;6.80;;
30149;SDS011;16962;48.646;9.026;2023-07-30T02:37:51;8.93;;;6.57;;
30149;SDS011;16962;48.646;9.026;2023-07-30T02:40:41;11.57;;;7.45;;
30149;SDS011;16962;48.646;9.026;2023-07-30T02:43:28;9.77;;;6.63;;
30149;SDS011;16962;48.646;9.026;2023-07-30T02:46:15;9.77;;;6.47;;
30149;SDS011;16962;48.646;9.026;2023-07-30T02:49:05;9.02;;;6.38;;
30149;SDS011;16962;48.646;9.026;2023-07-30T02:51:52;10.75;;;6.97;;
30149;SDS011;16962;48.646;9.026;2023-07-30T02:54:40;13.30;;;7.38;;
30149;SDS011;16962;48.646;9.026;2023-07-30T02:57:27;13.60;;;7.53;;
30149;SDS011;16962;48.646;9.026;2023-07-30T03:00:19;9.90;;;7.13;;
30149;SDS011;16962;48.646;9.026;2023-07-30T03:03:06;9.48;;;7.70;;
30149;SDS011;16962;48.646;9.026;2023-07-30T03:05:55;10.90;;;8.45;;
30149;SDS011;16962;48.646;9.026;2023-07-30T03:08:44;14.07;;;8.25;;
30149;SDS011;16962;48.646;9.026;2023-07-30T03:11:33;11.60;;;8.30;;
30149;SDS011;16962;48.646;9.026;2023-07-30T03:14:20;13.85;;;7.55;;
30149;SDS011;16962;48.646;9.026;2023-07-30T03:17:08;8.57;;;7.68;;
30149;SDS011;16962;48.646;9.026;2023-07-30T03:19:55;16.17;;;7.43;;
30149;SDS011;16962;48.646;9.026;2023-07-30T03:22:43;9.80;;;7.60;;
30149;SDS011;16962;48.646;9.026;2023-07-30T03:25:30;9.88;;;7.55;;
30149;SDS011;16962;48.646;9.026;2023-07-30T03:31:11;13.05;;;7.10;;
30149;SDS011;16962;48.646;9.026;2023-07-30T03:33:58;9.00;;;7.43;;
30149;SDS011;16962;48.646;9.026;2023-07-30T03:36:46;8.27;;;7.32;;
30149;SDS011;16962;48.646;9.026;2023-07-30T03:39:33;7.85;;;7.00;;
30149;SDS011;16962;48.646;9.026;2023-07-30T03:42:20;12.50;;;7.70;;
30149;SDS011;16962;48.646;9.026;2023-07-30T03:45:08;10.68;;;7.57;;
30149;SDS011;16962;48.646;9.026;2023-07-30T03:48:00;7.90;;;6.38;;
30149;SDS011;16962;48.646;9.026;2023-07-30T03:50:50;9.85;;;6.90;;
30149;SDS011;16962;48.646;9.026;2023-07-30T03:53:38;14.20;;;7.15;;
30149;SDS011;16962;48.646;9.026;2023-07-30T03:56:26;13.02;;;7.15;;
30149;SDS011;16962;48.646;9.026;2023-07-30T03:59:15;10.02;;;6.75;;
30149;SDS011;16962;48.646;9.026;2023-07-30T04:05:48;12.02;;;6.88;;
30149;SDS011;16962;48.646;9.026;2023-07-30T04:08:35;8.65;;;6.72;;
30149;SDS011;16962;48.646;9.026;2023-07-30T04:11:22;20.88;;;8.55;;
30149;SDS011;16962;48.646;9.026;2023-07-30T04:14:09;13.43;;;7.63;;
30149;SDS011;16962;48.646;9.026;2023-07-30T04:16:57;10.63;;;7.72;;
30149;SDS011;16962;48.646;9.026;2023-07-30T04:19:44;9.77;;;7.47;;
30149;SDS011;16962;48.646;9.026;2023-07-30T04:22:32;10.65;;;7.32;;
30149;SDS011;16962;48.646;9.026;2023-07-30T04:25:19;11.23;;;7.80;;
30149;SDS011;16962;48.646;9.026;2023-07-30T04:28:09;8.63;;;7.53;;
30149;SDS011;16962;48.646;9.026;2023-07-30T04:30:56;11.82;;;7.75;;
30149;SDS011;16962;48.646;9.026;2023-07-30T04:33:44;10.20;;;8.23;;
30149;SDS011;16962;48.646;9.026;2023-07-30T04:36:31;12.05;;;7.63;;
30149;SDS011;16962;48.646;9.026;2023-07-30T04:39:20;13.65;;;8.18;;
30149;SDS011;16962;48.646;9.026;2023-07-30T04:42:08;14.65;;;8.73;;
30149;SDS011;16962;48.646;9.026;2023-07-30T04:44:55;13.15;;;8.30;;
30149;SDS011;16962;48.646;9.026;2023-07-30T04:47:42;12.98;;;8.27;;
30149;SDS011;16962;48.646;9.026;2023-07-30T04:50:32;10.20;;;8.07;;
30149;SDS011;16962;48.646;9.026;2023-07-30T04:53:21;11.68;;;7.40;;
30149;SDS011;16962;48.646;9.026;2023-07-30T04:56:08;10.73;;;7.88;;
30149;SDS011;16962;48.646;9.026;2023-07-30T04:58:55;10.38;;;7.82;;
30149;SDS011;16962;48.646;9.026;2023-07-30T05:01:44;11.45;;;7.22;;
30149;SDS011;16962;48.646;9.026;2023-07-30T05:04:32;10.45;;;6.55;;
30149;SDS011;16962;48.646;9.026;2023-07-30T05:07:21;9.43;;;6.55;;
30149;SDS011;16962;48.646;9.026;2023-07-30T05:10:09;7.30;;;6.03;;
30149;SDS011;16962;48.646;9.026;2023-07-30T05:12:57;8.35;;;5.82;;
30149;SDS011;16962;48.646;9.026;2023-07-30T05:15:44;9.50;;;5.43;;
30149;SDS011;16962;48.646;9.026;2023-07-30T05:18:32;8.38;;;5.60;;
30149;SDS011;16962;48.646;9.026;2023-07-30T05:21:19;5.57;;;4.80;;
30149;SDS011;16962;48.646;9.026;2023-07-30T05:24:08;10.77;;;4.80;;
30149;SDS011;16962;48.646;9.026;2023-07-30T05:26:55;8.88;;;4.68;;
30149;SDS011;16962;48.646;9.026;2023-07-30T05:29:43;9.30;;;4.90;;
30149;SDS011;16962;48.646;9.026;2023-07-30T05:32:34;7.60;;;4.80;;
30149;SDS011;16962;48.646;9.026;2023-07-30T05:35:22;5.47;;;4.63;;
30149;SDS011;16962;48.646;9.026;2023-07-30T05:38:13;7.63;;;4.55;;
30149;SDS011;16962;48.646;9.026;2023-07-30T05:41:01;5.68;;;4.28;;
30149;SDS011;16962;48.646;9.026;2023-07-30T05:43:48;5.05;;;4.03;;
30149;SDS011;16962;48.646;9.026;2023-07-30T05:46:36;4.60;;;4.07;;
30149;SDS011;16962;48.646;9.026;2023-07-30T05:49:24;7.40;;;4.30;;
30149;SDS011;16962;48.646;9.026;2023-07-30T05:52:11;6.75;;;3.80;;
30149;SDS011;16962;48.646;9.026;2023-07-30T05:54:59;6.65;;;3.63;;
30149;SDS011;16962;48.646;9.026;2023-07-30T05:57:46;6.43;;;3.67;;
30149;SDS011;16962;48.646;9.026;2023-07-30T06:00:35;5.65;;;4.03;;
30149;SDS011;16962;48.646;9.026;2023-07-30T06:03:22;4.57;;;3.92;;
30149;SDS011;16962;48.646;9.026;2023-07-30T06:06:10;4.70;;;4.30;;
30149;SDS011;16962;48.646;9.026;2023-07-30T06:08:57;5.07;;;4.22;;
30149;SDS011;16962;48.646;9.026;2023-07-30T06:11:45;8.70;;;3.95;;
30149;SDS011;16962;48.646;9.026;2023-07-30T06:14:33;6.15;;;3.83;;
30149;SDS011;16962;48.646;9.026;2023-07-30T06:17:20;6.95;;;3.90;;
30149;SDS011;16962;48.646;9.026;2023-07-30T06:20:07;5.07;;;3.58;;
30149;SDS011;16962;48.646;9.026;2023-07-30T06:22:57;5.60;;;4.05;;
30149;SDS011;16962;48.646;9.026;2023-07-30T06:25:44;6.97;;;3.88;;
30149;SDS011;16962;48.646;9.026;2023-07-30T06:28:32;9.68;;;4.22;;
30149;SDS011;16962;48.646;9.026;2023-07-30T06:31:19;4.35;;;3.40;;
30149;SDS011;16962;48.646;9.026;2023-07-30T06:34:07;3.67;;;3.30;;
30149;SDS011;16962;48.646;9.026;2023-07-30T06:36:54;4.18;;;2.35;;
30149;SDS011;16962;48.646;9.026;2023-07-30T06:39:43;3.35;;;2.50;;
30149;SDS011;16962;48.646;9.026;2023-07-30T06:42:31;3.72;;;2.50;;
30149;SDS011;16962;48.646;9.026;2023-07-30T06:45:26;6.80;;;2.53;;
30149;SDS011;16962;48.646;9.026;2023-07-30T06:48:16;4.85;;;3.15;;
30149;SDS011;16962;48.646;9.026;2023-07-30T06:51:06;2.72;;;2.40;;
30149;SDS011;16962;48.646;9.026;2023-07-30T06:53:54;3.15;;;2.83;;
30149;SDS011;16962;48.646;9.026;2023-07-30T06:56:41;3.35;;;2.67;;
30149;SDS011;16962;48.646;9.026;2023-07-30T06:59:33;2.92;;;2.22;;
30149;SDS011;16962;48.646;9.026;2023-07-30T07:02:21;2.97;;;2.60;;
30149;SDS011;16962;48.646;9.026;2023-07-30T07:05:08;4.15;;;3.13;;
30149;SDS011;16962;48.646;9.026;2023-07-30T07:07:56;4.88;;;3.30;;
30149;SDS011;16962;48.646;9.026;2023-07-30T07:10:44;3.53;;;1.90;;
30149;SDS011;16962;48.646;9.026;2023-07-30T07:13:33;3.42;;;2.35;;
30149;SDS011;16962;48.646;9.026;2023-07-30T07:16:21;2.83;;;2.53;;
30149;SDS011;16962;48.646;9.026;2023-07-30T07:19:08;4.32;;;2.67;;
30149;SDS011;16962;48.646;9.026;2023-07-30T07:21:58;4.03;;;2.42;;
30149;SDS011;16962;48.646;9.026;2023-07-30T07:24:46;6.43;;;2.55;;
30149;SDS011;16962;48.646;9.026;2023-07-30T07:27:33;3.30;;;2.00;;
30149;SDS011;16962;48.646;9.026;2023-07-30T07:30:23;2.50;;;2.05;;
30149;SDS011;16962;48.646;9.026;2023-07-30T07:33:10;3.50;;;2.20;;
30149;SDS011;16962;48.646;9.026;2023-07-30T07:36:07;3.22;;;2.40;;
30149;SDS011;16962;48.646;9.026;2023-07-30T07:38:54;2.50;;;2.30;;
30149;SDS011;16962;48.646;9.026;2023-07-30T07:41:42;2.50;;;2.03;;
30149;SDS011;16962;48.646;9.026;2023-07-30T07:44:29;1.77;;;1.67;;
30149;SDS011;16962;48.646;9.026;2023-07-30T07:47:17;2.85;;;2.00;;
30149;SDS011;16962;48.646;9.026;2023-07-30T07:50:05;3.67;;;1.90;;
30149;SDS011;16962;48.646;9.026;2023-07-30T07:52:52;2.28;;;2.08;;
30149;SDS011;16962;48.646;9.026;2023-07-30T07:55:40;3.33;;;2.20;;
30149;SDS011;16962;48.646;9.026;2023-07-30T07:58:27;2.42;;;2.00;;
30149;SDS011;16962;48.646;9.026;2023-07-30T08:01:17;1.85;;;1.60;;
30149;SDS011;16962;48.646;9.026;2023-07-30T08:04:05;2.15;;;1.40;;
30149;SDS011;16962;48.646;9.026;2023-07-30T08:06:52;2.83;;;1.80;;
30149;SDS011;16962;48.646;9.026;2023-07-30T08:09:39;1.23;;;1.13;;
30149;SDS011;16962;48.646;9.026;2023-07-30T08:12:31;1.40;;;1.20;;
30149;SDS011;16962;48.646;9.026;2023-07-30T08:15:19;1.40;;;1.30;;
30149;SDS011;16962;48.646;9.026;2023-07-30T08:18:07;2.63;;;1.40;;
30149;SDS011;16962;48.646;9.026;2023-07-30T08:20:55;1.67;;;1.35;;
30149;SDS011;16962;48.646;9.026;2023-07-30T08:23:42;1.60;;;1.50;;
30149;SDS011;16962;48.646;9.026;2023-07-30T08:26:30;2.33;;;1.48;;
30149;SDS011;16962;48.646;9.026;2023-07-30T08:29:21;2.03;;;1.17;;
30149;SDS011;16962;48.646;9.026;2023-07-30T08:32:08;3.60;;;1.23;;
30149;SDS011;16962;48.646;9.026;2023-07-30T08:34:55;1.52;;;1.40;;
30149;SDS011;16962;48.646;9.026;2023-07-30T08:37:43;1.38;;;1.10;;
30149;SDS011;16962;48.646;9.026;2023-07-30T08:40:31;1.50;;;1.13;;
30149;SDS011;16962;48.646;9.026;2023-07-30T08:43:19;1.92;;;1.10;;
30149;SDS011;16962;48.646;9.026;2023-07-30T08:46:06;1.60;;;1.20;;
30149;SDS011;16962;48.646;9.026;2023-07-30T08:48:56;2.53;;;1.30;;
30149;SDS011;16962;48.646;9.026;2023-07-30T08:51:44;3.72;;;1.30;;
30149;SDS011;16962;48.646;9.026;2023-07-30T08:54:36;1.73;;;1.50;;
30149;SDS011;16962;48.646;9.026;2023-07-30T08:57:24;2.85;;;1.40;;
30149;SDS011;16962;48.646;9.026;2023-07-30T09:00:15;2.92;;;1.30;;
30149;SDS011;16962;48.646;9.026;2023-07-30T09:03:05;1.15;;;1.05;;
30149;SDS011;16962;48.646;9.026;2023-07-30T09:05:56;1.42;;;1.30;;
30149;SDS011;16962;48.646;9.026;2023-07-30T09:08:43;1.55;;;1.40;;
30149;SDS011;16962;48.646;9.026;2023-07-30T09:11:30;1.92;;;1.40;;
30149;SDS011;16962;48.646;9.026;2023-07-30T09:14:21;3.33;;;1.70;;
30149;SDS011;16962;48.646;9.026;2023-07-30T09:17:08;1.50;;;1.40;;
30149;SDS011;16962;48.646;9.026;2023-07-30T09:19:55;3.60;;;1.67;;
30149;SDS011;16962;48.646;9.026;2023-07-30T09:22:45;1.70;;;1.50;;
30149;SDS011;16962;48.646;9.026;2023-07-30T09:25:37;4.38;;;1.90;;
30149;SDS011;16962;48.646;9.026;2023-07-30T09:33:48;3.67;;;2.33;;
30149;SDS011;16962;48.646;9.026;2023-07-30T09:36:36;5.53;;;2.63;;
30149;SDS011;16962;48.646;9.026;2023-07-30T09:39:24;7.97;;;2.53;;
30149;SDS011;16962;48.646;9.026;2023-07-30T09:42:12;2.28;;;2.08;;
30149;SDS011;16962;48.646;9.026;2023-07-30T09:44:59;3.47;;;2.25;;
30149;SDS011;16962;48.646;9.026;2023-07-30T09:47:47;4.53;;;2.42;;
30149;SDS011;16962;48.646;9.026;2023-07-30T09:50:37;3.78;;;2.35;;
30149;SDS011;16962;48.646;9.026;2023-07-30T09:53:24;3.97;;;1.92;;
30149;SDS011;16962;48.646;9.026;2023-07-30T09:56:13;2.25;;;2.00;;
30149;SDS011;16962;48.646;9.026;2023-07-30T09:59:00;3.47;;;1.98;;
30149;SDS011;16962;48.646;9.026;2023-07-30T10:01:48;5.10;;;2.10;;
30149;SDS011;16962;48.646;9.026;2023-07-30T10:04:39;4.75;;;1.60;;
30149;SDS011;16962;48.646;9.026;2023-07-30T10:07:30;4.60;;;1.80;;
30149;SDS011;16962;48.646;9.026;2023-07-30T10:10:17;3.90;;;1.88;;
30149;SDS011;16962;48.646;9.026;2023-07-30T10:13:08;2.75;;;2.00;;
30149;SDS011;16962;48.646;9.026;2023-07-30T10:15:57;5.93;;;2.20;;
30149;SDS011;16962;48.646;9.026;2023-07-30T10:18:45;2.63;;;1.85;;
30149;SDS011;16962;48.646;9.026;2023-07-30T10:21:38;2.25;;;1.90;;
30149;SDS011;16962;48.646;9.026;2023-07-30T10:24:29;5.32;;;1.60;;
30149;SDS011;16962;48.646;9.026;2023-07-30T10:27:17;2.72;;;1.80;;
30149;SDS011;16962;48.646;9.026;2023-07-30T10:30:14;2.05;;;1.45;;
30149;SDS011;16962;48.646;9.026;2023-07-30T10:33:03;5.40;;;1.90;;
30149;SDS011;16962;48.646;9.026;2023-07-30T10:35:58;3.90;;;2.15;;
30149;SDS011;16962;48.646;9.026;2023-07-30T10:38:48;2.03;;;1.70;;
30149;SDS011;16962;48.646;9.026;2023-07-30T10:41:42;2.33;;;1.70;;
30149;SDS011;16962;48.646;9.026;2023-07-30T10:44:43;2.83;;;1.70;;
30149;SDS011;16962;48.646;9.026;2023-07-30T10:47:33;4.30;;;2.15;;
30149;SDS011;16962;48.646;9.026;2023-07-30T10:50:24;2.83;;;1.60;;
30149;SDS011;16962;48.646;9.026;2023-07-30T10:53:19;4.55;;;1.52;;
30149;SDS011;16962;48.646;9.026;2023-07-30T10:56:06;3.00;;;1.90;;
30149;SDS011;16962;48.646;9.026;2023-07-30T10:58:54;3.58;;;1.70;;
30149;SDS011;16962;48.646;9.026;2023-07-30T11:01:42;2.55;;;1.83;;
30149;SDS011;16962;48.646;9.026;2023-07-30T11:04:33;2.63;;;1.52;;
30149;SDS011;16962;48.646;9.026;2023-07-30T11:07:22;4.03;;;1.80;;
30149;SDS011;16962;48.646;9.026;2023-07-30T11:10:09;2.45;;;1.67;;
30149;SDS011;16962;48.646;9.026;2023-07-30T11:12:57;4.13;;;1.73;;
30149;SDS011;16962;48.646;9.026;2023-07-30T11:15:47;2.40;;;1.70;;
30149;SDS011;16962;48.646;9.026;2023-07-30T11:18:37;2.22;;;1.70;;
30149;SDS011;16962;48.646;9.026;2023-07-30T11:21:27;5.95;;;2.17;;
30149;SDS011;16962;48.646;9.026;2023-07-30T11:24:16;2.90;;;1.80;;
30149;SDS011;16962;48.646;9.026;2023-07-30T11:27:03;1.67;;;1.55;;
30149;SDS011;16962;48.646;9.026;2023-07-30T11:29:57;2.50;;;1.70;;
30149;SDS011;16962;48.646;9.026;2023-07-30T11:32:44;2.88;;;1.60;;
30149;SDS011;16962;48.646;9.026;2023-07-30T11:35:42;2.60;;;1.67;;
30149;SDS011;16962;48.646;9.026;2023-07-30T11:38:32;2.40;;;1.40;;
30149;SDS011;16962;48.646;9.026;2023-07-30T11:41:20;3.55;;;1.80;;
30149;SDS011;16962;48.646;9.026;2023-07-30T11:44:18;3.25;;;1.20;;
30149;SDS011;16962;48.646;9.026;2023-07-30T11:47:23;1.67;;;1.40;;
30149;SDS011;16962;48.646;9.026;2023-07-30T11:50:15;5.72;;;1.90;;
30149;SDS011;16962;48.646;9.026;2023-07-30T11:53:04;3.83;;;1.83;;
30149;SDS011;16962;48.646;9.026;2023-07-30T11:55:51;3.35;;;1.70;;
30149;SDS011;16962;48.646;9.026;2023-07-30T11:58:39;2.33;;;1.40;;
30149;SDS011;16962;48.646;9.026;2023-07-30T12:01:32;4.13;;;1.40;;
30149;SDS011;16962;48.646;9.026;2023-07-30T12:07:11;2.63;;;1.60;;
30149;SDS011;16962;48.646;9.026;2023-07-30T12:10:12;2.97;;;1.70;;
30149;SDS011;16962;48.646;9.026;2023-07-30T12:13:00;2.40;;;1.67;;
30149;SDS011;16962;48.646;9.026;2023-07-30T12:15:51;2.75;;;1.70;;
30149;SDS011;16962;48.646;9.026;2023-07-30T12:18:45;2.30;;;1.63;;
30149;SDS011;16962;48.646;9.026;2023-07-30T12:21:34;3.00;;;1.50;;
30149;SDS011;16962;48.646;9.026;2023-07-30T12:24:25;3.47;;;1.90;;
30149;SDS011;16962;48.646;9.026;2023-07-30T12:27:13;4.53;;;1.83;;
30149;SDS011;16962;48.646;9.026;2023-07-30T12:30:00;3.22;;;1.75;;
30149;SDS011;16962;48.646;9.026;2023-07-30T12:32:47;3.30;;;1.67;;
30149;SDS011;16962;48.646;9.026;2023-07-30T12:35:35;3.30;;;2.00;;
30149;SDS011;16962;48.646;9.026;2023-07-30T12:38:22;2.30;;;1.65;;
30149;SDS011;16962;48.646;9.026;2023-07-30T12:41:09;3.08;;;1.50;;
30149;SDS011;16962;48.646;9.026;2023-07-30T12:44:00;4.72;;;1.85;;
30149;SDS011;16962;48.646;9.026;2023-07-30T12:46:47;3.83;;;1.80;;
30149;SDS011;16962;48.646;9.026;2023-07-30T12:49:34;3.42;;;2.00;;
30149;SDS011;16962;48.646;9.026;2023-07-30T12:52:24;4.45;;;1.83;;
30149;SDS011;16962;48.646;9.026;2023-07-30T12:55:12;2.30;;;1.70;;
30149;SDS011;16962;48.646;9.026;2023-07-30T12:58:01;3.95;;;1.83;;
30149;SDS011;16962;48.646;9.026;2023-07-30T13:00:52;3.03;;;1.90;;
30149;SDS011;16962;48.646;9.026;2023-07-30T13:03:39;2.38;;;1.67;;
30149;SDS011;16962;48.646;9.026;2023-07-30T13:06:31;4.25;;;1.70;;
30149;SDS011;16962;48.646;9.026;2023-07-30T13:09:20;3.00;;;1.70;;
30149;SDS011;16962;48.646;9.026;2023-07-30T13:12:08;4.05;;;1.80;;
30149;SDS011;16962;48.646;9.026;2023-07-30T13:14:55;2.25;;;1.70;;
30149;SDS011;16962;48.646;9.026;2023-07-30T13:17:44;2.17;;;1.63;;
30149;SDS011;16962;48.646;9.026;2023-07-30T13:20:31;3.28;;;1.77;;
30149;SDS011;16962;48.646;9.026;2023-07-30T13:23:19;2.47;;;1.52;;
30149;SDS011;16962;48.646;9.026;2023-07-30T13:26:09;2.70;;;1.70;;
30149;SDS011;16962;48.646;9.026;2023-07-30T13:28:58;4.05;;;1.50;;
30149;SDS011;16962;48.646;9.026;2023-07-30T13:31:48;6.55;;;1.58;;
30149;SDS011;16962;48.646;9.026;2023-07-30T13:34:35;5.05;;;1.88;;
30149;SDS011;16962;48.646;9.026;2023-07-30T13:37:25;2.67;;;1.70;;
30149;SDS011;16962;48.646;9.026;2023-07-30T13:40:12;2.70;;;1.83;;
30149;SDS011;16962;48.646;9.026;2023-07-30T13:43:00;3.05;;;1.58;;
30149;SDS011;16962;48.646;9.026;2023-07-30T13:45:49;2.90;;;1.85;;
30149;SDS011;16962;48.646;9.026;2023-07-30T13:48:37;4.28;;;1.52;;
30149;SDS011;16962;48.646;9.026;2023-07-30T13:51:24;3.03;;;1.48;;
30149;SDS011;16962;48.646;9.026;2023-07-30T13:54:14;2.78;;;1.42;;
30149;SDS011;16962;48.646;9.026;2023-07-30T13:57:04;3.63;;;1.60;;
30149;SDS011;16962;48.646;9.026;2023-07-30T13:59:52;4.30;;;1.60;;
30149;SDS011;16962;48.646;9.026;2023-07-30T14:02:42;3.28;;;1.70;;
30149;SDS011;16962;48.646;9.026;2023-07-30T14:05:30;3.22;;;1.52;;
30149;SDS011;16962;48.646;9.026;2023-07-30T14:08:21;2.42;;;1.45;;
30149;SDS011;16962;48.646;9.026;2023-07-30T14:11:11;4.03;;;1.70;;
30149;SDS011;16962;48.646;9.026;2023-07-30T14:14:03;3.58;;;1.65;;
30149;SDS011;16962;48.646;9.026;2023-07-30T14:16:55;4.68;;;1.80;;
30149;SDS011;16962;48.646;9.026;2023-07-30T14:19:45;3.30;;;1.67;;
30149;SDS011;16962;48.646;9.026;2023-07-30T14:22:35;2.45;;;1.55;;
30149;SDS011;16962;48.646;9.026;2023-07-30T14:25:25;3.17;;;1.85;;
30149;SDS011;16962;48.646;9.026;2023-07-30T14:28:12;4.60;;;1.50;;
30149;SDS011;16962;48.646;9.026;2023-07-30T14:31:01;4.03;;;1.63;;
30149;SDS011;16962;48.646;9.026;2023-07-30T14:33:48;3.45;;;1.33;;
30149;SDS011;16962;48.646;9.026;2023-07-30T14:36:36;3.60;;;1.38;;
30149;SDS011;16962;48.646;9.026;2023-07-30T14:39:23;4.13;;;1.65;;
30149;SDS011;16962;48.646;9.026;2023-07-30T14:42:13;2.40;;;1.17;;
30149;SDS011;16962;48.646;9.026;2023-07-30T14:45:01;2.38;;;1.30;;
30149;SDS011;16962;48.646;9.026;2023-07-30T14:47:48;1.73;;;1.20;;
30149;SDS011;16962;48.646;9.026;2023-07-30T14:50:37;6.70;;;1.60;;
30149;SDS011;16962;48.646;9.026;2023-07-30T14:53:24;2.78;;;1.48;;
30149;SDS011;16962;48.646;9.026;2023-07-30T14:56:12;4.20;;;1.20;;
30149;SDS011;16962;48.646;9.026;2023-07-30T14:59:01;4.40;;;1.42;;
30149;SDS011;16962;48.646;9.026;2023-07-30T15:01:48;3.55;;;1.45;;
30149;SDS011;16962;48.646;9.026;2023-07-30T15:04:38;6.90;;;1.30;;
30149;SDS011;16962;48.646;9.026;2023-07-30T15:07:26;4.95;;;1.52;;
30149;SDS011;16962;48.646;9.026;2023-07-30T15:10:15;6.20;;;1.73;;
30149;SDS011;16962;48.646;9.026;2023-07-30T15:13:03;5.22;;;1.48;;
30149;SDS011;16962;48.646;9.026;2023-07-30T15:15:51;2.67;;;1.30;;
30149;SDS011;16962;48.646;9.026;2023-07-30T15:18:41;3.55;;;1.50;;
30149;SDS011;16962;48.646;9.026;2023-07-30T15:21:32;4.00;;;1.40;;
30149;SDS011;16962;48.646;9.026;2023-07-30T15:24:19;4.82;;;1.55;;
30149;SDS011;16962;48.646;9.026;2023-07-30T15:27:06;2.63;;;1.45;;
30149;SDS011;16962;48.646;9.026;2023-07-30T15:29:54;4.05;;;1.63;;
30149;SDS011;16962;48.646;9.026;2023-07-30T15:32:42;2.38;;;1.38;;
30149;SDS011;16962;48.646;9.026;2023-07-30T15:35:30;3.88;;;1.20;;
30149;SDS011;16962;48.646;9.026;2023-07-30T15:38:21;6.65;;;1.67;;
30149;SDS011;16962;48.646;9.026;2023-07-30T15:41:16;6.93;;;1.48;;
30149;SDS011;16962;48.646;9.026;2023-07-30T15:44:05;2.25;;;1.20;;
30149;SDS011;16962;48.646;9.026;2023-07-30T15:46:56;3.67;;;1.83;;
30149;SDS011;16962;48.646;9.026;2023-07-30T15:49:43;4.15;;;1.13;;
30149;SDS011;16962;48.646;9.026;2023-07-30T15:52:30;2.78;;;1.15;;
30149;SDS011;16962;48.646;9.026;2023-07-30T15:55:22;3.65;;;1.52;;
30149;SDS011;16962;48.646;9.026;2023-07-30T15:58:10;1.92;;;1.27;;
30149;SDS011;16962;48.646;9.026;2023-07-30T16:00:57;4.55;;;1.50;;
30149;SDS011;16962;48.646;9.026;2023-07-30T16:03:49;3.78;;;1.35;;
30149;SDS011;16962;48.646;9.026;2023-07-30T16:06:36;2.42;;;1.45;;
30149;SDS011;16962;48.646;9.026;2023-07-30T16:09:24;3.83;;;1.45;;
30149;SDS011;16962;48.646;9.026;2023-07-30T16:12:11;4.70;;;1.27;;
30149;SDS011;16962;48.646;9.026;2023-07-30T16:14:59;2.92;;;1.13;;
30149;SDS011;16962;48.646;9.026;2023-07-30T16:17:48;3.95;;;1.63;;
30149;SDS011;16962;48.646;9.026;2023-07-30T16:20:35;3.33;;;1.40;;
30149;SDS011;16962;48.646;9.026;2023-07-30T16:23:25;5.63;;;1.10;;
30149;SDS011;16962;48.646;9.026;2023-07-30T16:26:14;6.35;;;1.20;;
30149;SDS011;16962;48.646;9.026;2023-07-30T16:29:03;4.20;;;1.20;;
30149;SDS011;16962;48.646;9.026;2023-07-30T16:31:55;3.13;;;1.33;;
30149;SDS011;16962;48.646;9.026;2023-07-30T16:34:42;3.60;;;1.13;;
30149;SDS011;16962;48.646;9.026;2023-07-30T16:37:29;5.07;;;1.30;;
30149;SDS011;16962;48.646;9.026;2023-07-30T16:40:19;5.07;;;1.48;;
30149;SDS011;16962;48.646;9.026;2023-07-30T16:43:11;3.03;;;1.35;;
30149;SDS011;16962;48.646;9.026;2023-07-30T16:45:59;5.00;;;1.50;;
30149;SDS011;16962;48.646;9.026;2023-07-30T16:48:50;7.22;;;1.35;;
30149;SDS011;16962;48.646;9.026;2023-07-30T16:51:37;4.88;;;1.30;;
30149;SDS011;16962;48.646;9.026;2023-07-30T16:54:24;2.95;;;1.27;;
30149;SDS011;16962;48.646;9.026;2023-07-30T16:57:12;2.25;;;1.27;;
30149;SDS011;16962;48.646;9.026;2023-07-30T16:59:59;6.15;;;1.40;;
30149;SDS011;16962;48.646;9.026;2023-07-30T17:02:47;6.30;;;2.20;;
30149;SDS011;16962;48.646;9.026;2023-07-30T17:05:35;4.15;;;1.65;;
30149;SDS011;16962;48.646;9.026;2023-07-30T17:08:29;4.15;;;1.60;;
30149;SDS011;16962;48.646;9.026;2023-07-30T17:11:19;6.20;;;1.77;;
30149;SDS011;16962;48.646;9.026;2023-07-30T17:14:09;7.35;;;1.35;;